Time;durP1;ratioP1;P1;durP2;ratioP2;P2;SDS_P1;SDS_P2;PMS_P1;PMS_P2;Temp;Humidity;BMP_temperature;BMP_pressure;BME280_temperature;BME280_humidity;BME280_pressure;Samples;Min_cycle;Max_cycle;Signal;HPM_P1;HPM_P2
2021/07/20 00:02:33;;;;;;;2.90;1.50;;;30.60;98.10;;;;;;4976976;28;20211;-95
2021/07/20 00:05:11;;;;;;;2.47;1.27;;;30.40;97.60;;;;;;4979555;28;20269;-96
2021/07/20 00:07:42;;;;;;;1.83;1.20;;;30.40;98.80;;;;;;4978746;28;20706;-95
2021/07/20 00:10:15;;;;;;;2.53;1.40;;;30.70;97.90;;;;;;4978500;28;20235;-95
2021/07/20 00:12:48;;;;;;;3.00;1.40;;;30.80;97.90;;;;;;4977852;28;20218;-95
2021/07/20 00:15:22;;;;;;;3.30;1.30;;;30.90;97.50;;;;;;4977454;28;20285;-95
2021/07/20 00:17:55;;;;;;;2.10;1.13;;;30.60;97.80;;;;;;4979835;28;20289;-95
2021/07/20 00:20:27;;;;;;;1.80;1.30;;;30.50;97.50;;;;;;4984980;28;20215;-95
2021/07/20 00:22:59;;;;;;;1.75;1.30;;;30.50;97.20;;;;;;4981102;28;20207;-96
2021/07/20 00:25:30;;;;;;;1.53;1.17;;;30.30;97.40;;;;;;4980798;28;20717;-96
2021/07/20 00:28:06;;;;;;;1.10;1.00;;;30.50;97.10;;;;;;4980044;28;20544;-94
2021/07/20 00:30:40;;;;;;;2.77;1.20;;;30.20;95.40;;;;;;4977468;28;20219;-96
2021/07/20 00:33:12;;;;;;;2.10;1.30;;;30.30;96.70;;;;;;4977748;28;20199;-93
2021/07/20 00:35:44;;;;;;;2.90;1.50;;;30.30;96.40;;;;;;4977623;28;20956;-90
2021/07/20 00:38:16;;;;;;;2.60;1.40;;;30.60;96.40;;;;;;4978876;28;20246;-91
2021/07/20 00:40:48;;;;;;;2.08;1.27;;;30.70;95.50;;;;;;4977436;28;20290;-93
2021/07/20 00:43:20;;;;;;;2.30;1.20;;;30.90;96.00;;;;;;4963127;28;20254;-95
2021/07/20 00:45:54;;;;;;;1.50;1.40;;;30.60;96.40;;;;;;4958562;28;20207;-94
2021/07/20 00:48:28;;;;;;;1.50;1.10;;;30.90;96.90;;;;;;4972305;28;20205;-91
2021/07/20 00:50:59;;;;;;;5.37;1.73;;;31.00;96.90;;;;;;4982689;28;20277;-95
2021/07/20 00:53:32;;;;;;;2.00;1.45;;;30.90;95.70;;;;;;4960699;28;20217;-94
2021/07/20 00:56:03;;;;;;;2.42;1.60;;;30.60;95.30;;;;;;4962999;28;20210;-94
2021/07/20 00:58:35;;;;;;;1.90;1.27;;;30.40;96.00;;;;;;4978447;28;20242;-94
2021/07/20 01:01:08;;;;;;;2.92;1.33;;;30.30;95.30;;;;;;4977379;28;20207;-94
2021/07/20 01:03:40;;;;;;;2.73;1.53;;;30.30;96.40;;;;;;4944927;28;20206;-94
2021/07/20 01:06:13;;;;;;;1.67;1.33;;;30.50;96.00;;;;;;4978356;28;20297;-93
2021/07/20 01:08:45;;;;;;;2.47;1.37;;;31.30;96.00;;;;;;4989361;28;20294;-94
2021/07/20 01:11:18;;;;;;;4.20;1.30;;;32.10;95.50;;;;;;4996565;28;20207;-95
2021/07/20 01:13:51;;;;;;;1.45;1.35;;;31.40;95.30;;;;;;4996265;28;20203;-94
2021/07/20 01:16:26;;;;;;;1.90;1.60;;;32.10;95.90;;;;;;4991578;28;20253;-93
2021/07/20 01:18:57;;;;;;;1.83;1.10;;;32.60;93.90;;;;;;4983209;28;20628;-94
2021/07/20 01:21:30;;;;;;;4.00;1.40;;;32.80;94.30;;;;;;5000583;28;20249;-94
2021/07/20 01:24:08;;;;;;;2.72;1.40;;;32.60;94.40;;;;;;5009139;28;20206;-94
2021/07/20 01:26:38;;;;;;;4.03;1.50;;;32.90;94.40;;;;;;4998529;28;20214;-94
2021/07/20 01:29:11;;;;;;;1.70;1.15;;;33.20;93.80;;;;;;4996557;28;20190;-93
2021/07/20 01:31:45;;;;;;;12.52;1.75;;;32.90;93.30;;;;;;4993004;28;20210;-94
2021/07/20 01:34:18;;;;;;;1.90;1.30;;;32.70;94.10;;;;;;4997018;28;20210;-93
2021/07/20 01:36:50;;;;;;;2.90;1.30;;;33.10;93.20;;;;;;4997904;28;20242;-93
2021/07/20 01:39:24;;;;;;;4.55;1.40;;;33.30;93.00;;;;;;4997582;28;20193;-95
2021/07/20 01:41:57;;;;;;;2.85;1.30;;;33.50;93.10;;;;;;4989012;28;20206;-94
2021/07/20 01:44:28;;;;;;;2.75;1.38;;;33.60;93.00;;;;;;4981257;28;20239;-93
2021/07/20 01:46:59;;;;;;;1.85;1.35;;;33.00;93.80;;;;;;4979153;28;20630;-93
2021/07/20 01:49:31;;;;;;;4.95;1.55;;;33.30;93.50;;;;;;4977911;28;20226;-93
2021/07/20 01:52:03;;;;;;;1.92;1.42;;;33.30;92.30;;;;;;4976140;28;20294;-93
2021/07/20 01:54:37;;;;;;;3.60;1.30;;;33.60;92.10;;;;;;4976307;28;20238;-94
2021/07/20 01:57:08;;;;;;;1.38;1.10;;;33.70;92.30;;;;;;4976198;28;20643;-93
2021/07/20 01:59:41;;;;;;;1.42;1.20;;;33.50;92.50;;;;;;4976517;28;20225;-94
2021/07/20 02:02:26;;;;;;;4.80;1.40;;;33.80;92.50;;;;;;4975274;28;20249;-93
2021/07/20 02:10:43;;;;;;;2.25;0.80;;;32.90;92.00;;;;;;4992862;28;20861;-94
2021/07/20 02:13:15;;;;;;;1.88;1.10;;;32.60;91.10;;;;;;4977565;28;20587;-93
2021/07/20 02:15:49;;;;;;;2.90;0.80;;;31.70;91.50;;;;;;4995319;28;20233;-94
2021/07/20 02:18:24;;;;;;;1.65;0.77;;;30.90;91.90;;;;;;4988631;28;20281;-94
2021/07/20 02:20:56;;;;;;;1.43;0.80;;;30.10;92.40;;;;;;4976075;28;20293;-93
2021/07/20 02:23:30;;;;;;;2.07;0.77;;;29.20;93.40;;;;;;4975311;28;20238;-94
2021/07/20 02:26:04;;;;;;;0.90;0.70;;;28.60;93.80;;;;;;4975708;28;20266;-92
2021/07/20 02:28:37;;;;;;;1.20;0.80;;;28.10;94.00;;;;;;4992926;28;20598;-94
2021/07/20 02:31:12;;;;;;;1.50;1.00;;;27.60;94.40;;;;;;4960554;28;20241;-93
2021/07/20 02:33:44;;;;;;;2.23;0.70;;;27.20;94.60;;;;;;4974458;28;20294;-93
2021/07/20 02:36:17;;;;;;;3.33;0.97;;;26.80;94.80;;;;;;4967573;28;20258;-93
2021/07/20 02:38:50;;;;;;;1.70;0.70;;;26.60;95.30;;;;;;4956497;28;20952;-94
2021/07/20 02:41:23;;;;;;;2.77;0.70;;;26.40;95.10;;;;;;4965724;28;20290;-93
2021/07/20 02:43:55;;;;;;;1.63;1.07;;;26.10;95.40;;;;;;4951565;28;20299;-93
2021/07/20 02:46:27;;;;;;;1.03;0.80;;;25.90;95.70;;;;;;4972353;28;20819;-94
2021/07/20 02:49:00;;;;;;;2.73;0.97;;;25.60;96.70;;;;;;4980303;28;20218;-93
2021/07/20 02:51:32;;;;;;;1.33;0.70;;;25.50;96.60;;;;;;4958225;28;20227;-93
2021/07/20 02:54:03;;;;;;;3.60;0.90;;;25.40;96.20;;;;;;4968713;28;20257;-93
2021/07/20 02:56:37;;;;;;;3.27;0.70;;;25.20;96.30;;;;;;4979496;28;20337;-93
2021/07/20 02:59:10;;;;;;;1.70;0.70;;;25.10;96.30;;;;;;4979503;28;20231;-93
2021/07/20 03:01:43;;;;;;;1.43;0.80;;;25.00;96.40;;;;;;4980092;28;20206;-92
2021/07/20 03:04:14;;;;;;;2.30;0.60;;;24.80;96.80;;;;;;4959423;28;20219;-93
2021/07/20 03:06:51;;;;;;;2.20;0.90;;;24.60;97.10;;;;;;4959525;29;20231;-93
2021/07/20 03:09:24;;;;;;;1.17;0.90;;;24.50;97.10;;;;;;4959167;29;20702;-93
2021/07/20 03:12:04;;;;;;;2.67;0.90;;;24.30;97.20;;;;;;4979136;28;20214;-93
2021/07/20 03:14:36;;;;;;;3.07;0.80;;;24.20;97.70;;;;;;4977068;28;20251;-92
2021/07/20 03:17:10;;;;;;;1.67;0.70;;;24.10;97.60;;;;;;4978534;28;20214;-93
2021/07/20 03:19:44;;;;;;;2.80;1.00;;;23.90;97.70;;;;;;4980863;28;20206;-93
2021/07/20 03:22:18;;;;;;;9.43;0.80;;;23.90;98.20;;;;;;4999089;28;20234;-92
2021/07/20 03:24:50;;;;;;;1.60;0.60;;;23.70;98.00;;;;;;4999317;28;20302;-93
2021/07/20 03:27:31;;;;;;;3.53;0.73;;;23.60;98.00;;;;;;4999094;28;20610;-93
2021/07/20 03:30:03;;;;;;;1.70;0.90;;;23.40;98.00;;;;;;4987441;28;20299;-92
2021/07/20 03:32:34;;;;;;;2.07;0.77;;;23.20;98.40;;;;;;4982588;28;20310;-93
2021/07/20 03:35:06;;;;;;;2.30;0.70;;;23.10;98.00;;;;;;4994549;28;20267;-92
2021/07/20 03:37:37;;;;;;;2.03;0.77;;;22.90;98.30;;;;;;4994583;28;20234;-93
2021/07/20 03:40:10;;;;;;;0.97;0.60;;;22.90;98.30;;;;;;4995656;28;20214;-93
2021/07/20 03:42:45;;;;;;;1.17;0.80;;;22.80;98.40;;;;;;4988024;28;20248;-92
2021/07/20 03:45:18;;;;;;;2.70;1.00;;;22.60;98.60;;;;;;4982326;28;20213;-92
2021/07/20 03:47:50;;;;;;;1.90;0.70;;;22.50;98.90;;;;;;4986073;28;20287;-93
2021/07/20 03:50:21;;;;;;;0.83;0.70;;;22.50;99.00;;;;;;4981128;28;20242;-92
2021/07/20 03:52:53;;;;;;;6.00;0.70;;;22.30;99.40;;;;;;4997198;28;20230;-92
2021/07/20 03:55:24;;;;;;;0.93;0.70;;;22.20;99.10;;;;;;4993375;28;20293;-92
2021/07/20 03:57:58;;;;;;;1.03;0.83;;;22.10;98.90;;;;;;4978366;28;20330;-92
2021/07/20 04:00:29;;;;;;;1.27;0.70;;;21.90;99.20;;;;;;4979195;28;20334;-92
2021/07/20 04:05:51;;;;;;;2.17;0.63;;;21.80;99.90;;;;;;4978738;28;20290;-94
2021/07/20 04:08:23;;;;;;;1.70;0.70;;;21.70;99.60;;;;;;4978295;28;20318;-93
2021/07/20 04:10:55;;;;;;;1.63;0.87;;;21.50;99.90;;;;;;4961847;28;20258;-93
2021/07/20 04:13:31;;;;;;;3.70;1.07;;;21.40;99.90;;;;;;4977383;28;20214;-93
2021/07/20 04:16:05;;;;;;;2.60;0.73;;;21.30;99.90;;;;;;4978126;28;20219;-92
2021/07/20 04:18:38;;;;;;;1.77;0.60;;;21.30;99.90;;;;;;4978618;28;20268;-92
2021/07/20 04:21:09;;;;;;;4.63;0.80;;;21.10;99.90;;;;;;4978159;28;20607;-93
2021/07/20 04:23:41;;;;;;;3.13;0.70;;;21.10;99.90;;;;;;4995231;28;20213;-92
2021/07/20 04:26:15;;;;;;;4.40;0.80;;;21.00;99.90;;;;;;4998444;28;20229;-92
2021/07/20 04:28:48;;;;;;;0.90;0.53;;;20.90;99.90;;;;;;4981949;28;20241;-93
2021/07/20 04:31:22;;;;;;;6.37;0.97;;;20.80;99.90;;;;;;4978520;28;20577;-96
2021/07/20 04:33:53;;;;;;;2.07;0.70;;;20.70;99.90;;;;;;4979165;28;20213;-94
2021/07/20 04:36:25;;;;;;;3.33;0.80;;;20.60;99.90;;;;;;4980545;28;20640;-94
2021/07/20 04:38:56;;;;;;;4.00;0.97;;;20.60;99.90;;;;;;4996079;28;20295;-93
2021/07/20 04:41:28;;;;;;;2.73;0.80;;;20.50;99.90;;;;;;4993925;28;20227;-93
2021/07/20 04:44:01;;;;;;;3.03;1.00;;;20.40;99.90;;;;;;4993434;28;20199;-93
2021/07/20 04:46:33;;;;;;;2.40;0.90;;;20.30;99.90;;;;;;4987992;28;20273;-92
2021/07/20 04:49:04;;;;;;;1.43;0.70;;;20.20;99.90;;;;;;4988980;28;20202;-93
2021/07/20 04:51:39;;;;;;;2.60;1.00;;;20.10;99.90;;;;;;4996019;28;20273;-93
2021/07/20 04:54:12;;;;;;;4.60;1.17;;;20.00;99.90;;;;;;4997555;28;20230;-91
2021/07/20 04:56:44;;;;;;;2.90;1.10;;;20.00;99.90;;;;;;4996884;28;20213;-92
2021/07/20 04:59:17;;;;;;;3.23;1.00;;;19.80;99.90;;;;;;4960161;28;20307;-92
2021/07/20 05:01:50;;;;;;;2.70;0.80;;;19.70;99.90;;;;;;4976226;28;20691;-92
2021/07/20 05:04:24;;;;;;;6.10;1.80;;;19.60;99.90;;;;;;4976229;28;20210;-92
2021/07/20 05:06:55;;;;;;;4.27;1.80;;;19.50;99.90;;;;;;4976545;28;20310;-92
2021/07/20 05:09:26;;;;;;;4.07;0.90;;;19.30;99.90;;;;;;4976339;28;20298;-91
2021/07/20 05:11:57;;;;;;;6.40;2.17;;;19.20;99.90;;;;;;4975430;28;20207;-92
2021/07/20 05:14:31;;;;;;;1.60;0.60;;;19.10;99.90;;;;;;4976396;28;20672;-92
2021/07/20 05:17:02;;;;;;;6.33;0.83;;;18.90;99.90;;;;;;4958002;28;20290;-91
2021/07/20 05:19:33;;;;;;;2.53;0.60;;;18.90;99.90;;;;;;4956729;29;20266;-93
2021/07/20 05:22:06;;;;;;;1.27;0.53;;;18.80;99.90;;;;;;4956567;29;20212;-93
2021/07/20 05:24:38;;;;;;;0.93;0.70;;;18.70;99.90;;;;;;4967471;28;20227;-92
2021/07/20 05:27:12;;;;;;;2.57;0.80;;;18.70;99.90;;;;;;4977429;28;20210;-93
2021/07/20 05:29:49;;;;;;;0.97;0.60;;;18.60;99.90;;;;;;4976470;28;20686;-92
2021/07/20 05:32:24;;;;;;;0.90;0.57;;;18.50;99.90;;;;;;4976929;28;20285;-93
2021/07/20 05:34:56;;;;;;;3.77;0.90;;;18.50;99.90;;;;;;4995942;28;20737;-91
2021/07/20 05:37:28;;;;;;;2.03;0.70;;;18.40;99.90;;;;;;4995119;28;20926;-92
2021/07/20 05:39:59;;;;;;;3.63;1.03;;;18.40;99.90;;;;;;4995943;28;20673;-92
2021/07/20 05:42:32;;;;;;;2.37;0.90;;;18.40;99.90;;;;;;4983673;28;20231;-91
2021/07/20 05:45:08;;;;;;;2.40;0.73;;;18.40;99.90;;;;;;4976125;28;20280;-92
2021/07/20 05:47:43;;;;;;;1.23;0.67;;;18.30;99.90;;;;;;4958206;28;20242;-91
2021/07/20 05:50:16;;;;;;;1.77;0.90;;;18.30;99.90;;;;;;4979237;28;20214;-92
2021/07/20 05:52:49;;;;;;;4.17;0.90;;;18.20;99.90;;;;;;4976305;28;20286;-91
2021/07/20 05:55:24;;;;;;;1.13;0.67;;;18.10;99.90;;;;;;4976705;28;20735;-91
2021/07/20 05:57:57;;;;;;;3.10;0.60;;;18.10;99.90;;;;;;4986014;28;20209;-91
2021/07/20 06:00:31;;;;;;;1.37;0.60;;;18.00;99.90;;;;;;4984467;28;20229;-92
2021/07/20 06:03:02;;;;;;;2.20;0.53;;;18.00;99.90;;;;;;4999083;28;20197;-92
2021/07/20 06:05:34;;;;;;;2.10;0.70;;;17.90;99.90;;;;;;4985123;28;20722;-91
2021/07/20 06:08:05;;;;;;;0.80;0.50;;;17.90;99.90;;;;;;4993959;28;20234;-93
2021/07/20 06:10:37;;;;;;;2.07;0.60;;;17.80;99.90;;;;;;4979473;28;20202;-93
2021/07/20 06:13:09;;;;;;;2.63;0.70;;;17.80;99.90;;;;;;4985734;28;20210;-92
2021/07/20 06:15:45;;;;;;;1.27;0.70;;;17.80;99.90;;;;;;4981160;28;20226;-92
2021/07/20 06:18:17;;;;;;;2.70;1.10;;;17.70;99.90;;;;;;4977276;28;20226;-92
2021/07/20 06:20:54;;;;;;;1.67;0.70;;;17.70;99.90;;;;;;4976215;28;20265;-93
2021/07/20 06:23:27;;;;;;;0.60;0.50;;;17.60;99.90;;;;;;4960032;28;20207;-92
2021/07/20 06:25:58;;;;;;;3.03;1.13;;;17.60;99.90;;;;;;4977976;28;20303;-90
2021/07/20 06:28:30;;;;;;;2.80;0.70;;;17.50;99.90;;;;;;4977201;28;20294;-91
2021/07/20 06:31:04;;;;;;;2.53;0.90;;;17.50;99.90;;;;;;4978192;28;20306;-92
2021/07/20 06:33:36;;;;;;;2.80;1.07;;;17.50;99.90;;;;;;4977447;28;20298;-91
2021/07/20 06:36:08;;;;;;;3.97;1.20;;;17.50;99.90;;;;;;4972061;28;20246;-91
2021/07/20 06:38:40;;;;;;;1.80;0.70;;;17.50;99.90;;;;;;4977788;28;20207;-90
2021/07/20 06:41:13;;;;;;;2.27;0.73;;;17.50;99.90;;;;;;4979788;28;20234;-90
2021/07/20 06:43:43;;;;;;;3.17;0.90;;;17.50;99.90;;;;;;4978370;28;20238;-91
2021/07/20 06:46:17;;;;;;;3.40;1.00;;;17.50;99.90;;;;;;4962408;28;20222;-91
2021/07/20 06:48:49;;;;;;;1.27;0.60;;;17.50;99.90;;;;;;4962110;28;20314;-91
2021/07/20 06:51:20;;;;;;;2.70;0.83;;;17.50;99.90;;;;;;4980393;28;20271;-91
2021/07/20 06:53:52;;;;;;;2.50;0.80;;;17.40;99.90;;;;;;4982565;28;20242;-91
2021/07/20 06:56:27;;;;;;;2.07;1.33;;;17.40;99.90;;;;;;4994454;28;20210;-92
2021/07/20 06:59:00;;;;;;;1.40;0.70;;;17.40;99.90;;;;;;4995370;28;20267;-92
2021/07/20 07:01:34;;;;;;;1.67;0.60;;;17.30;99.90;;;;;;4981475;28;20206;-91
2021/07/20 07:04:13;;;;;;;3.27;0.90;;;17.20;99.90;;;;;;4977828;28;20213;-91
2021/07/20 07:06:48;;;;;;;3.27;0.87;;;17.20;99.90;;;;;;4993798;28;20207;-91
2021/07/20 07:09:20;;;;;;;2.43;0.80;;;17.20;99.90;;;;;;4992653;28;20707;-91
2021/07/20 07:11:54;;;;;;;3.27;1.10;;;17.20;99.90;;;;;;4975791;28;20207;-91
2021/07/20 07:14:25;;;;;;;2.80;0.90;;;17.00;99.90;;;;;;4975818;28;20290;-91
2021/07/20 07:16:58;;;;;;;1.17;0.67;;;17.00;99.90;;;;;;4976002;28;20249;-91
2021/07/20 07:19:33;;;;;;;5.47;1.00;;;16.90;99.90;;;;;;4975642;28;20230;-91
2021/07/20 07:22:06;;;;;;;2.43;1.00;;;16.90;99.90;;;;;;4975160;28;20284;-92
2021/07/20 07:24:38;;;;;;;1.23;0.63;;;16.90;99.90;;;;;;4976415;28;20211;-91
2021/07/20 07:27:10;;;;;;;2.00;0.83;;;16.80;99.90;;;;;;4981722;28;20215;-91
2021/07/20 07:29:44;;;;;;;5.33;1.17;;;16.80;99.90;;;;;;4995125;28;20269;-91
2021/07/20 07:32:21;;;;;;;1.87;0.73;;;16.80;99.90;;;;;;4983510;28;20203;-91
2021/07/20 07:34:53;;;;;;;1.97;0.90;;;16.70;99.90;;;;;;4963702;28;20210;-90
2021/07/20 07:37:27;;;;;;;1.07;0.77;;;16.60;99.90;;;;;;4987664;28;20210;-91
2021/07/20 07:40:02;;;;;;;1.57;0.80;;;16.60;99.90;;;;;;4990840;28;20235;-91
2021/07/20 07:42:34;;;;;;;5.03;0.97;;;16.70;99.90;;;;;;4995607;28;20206;-92
2021/07/20 07:45:08;;;;;;;2.90;1.00;;;16.70;99.90;;;;;;5002727;28;20241;-92
2021/07/20 07:47:43;;;;;;;3.37;0.97;;;16.60;99.90;;;;;;4998018;28;20225;-92
2021/07/20 07:50:15;;;;;;;1.70;0.80;;;16.50;99.90;;;;;;4998264;28;20222;-92
2021/07/20 07:52:46;;;;;;;2.73;0.90;;;16.50;99.90;;;;;;4997219;28;20211;-91
2021/07/20 07:55:20;;;;;;;2.40;1.00;;;16.50;99.90;;;;;;4986875;28;20203;-91
2021/07/20 07:57:52;;;;;;;3.07;0.80;;;16.40;99.90;;;;;;4978472;28;20242;-92
2021/07/20 08:00:28;;;;;;;2.17;0.83;;;16.40;99.90;;;;;;4977866;28;20326;-92
2021/07/20 08:03:04;;;;;;;2.40;1.00;;;16.30;99.90;;;;;;4978171;28;20229;-91
2021/07/20 08:05:37;;;;;;;3.07;0.80;;;16.30;99.90;;;;;;4978466;28;20647;-91
2021/07/20 08:08:09;;;;;;;3.00;0.90;;;16.30;99.90;;;;;;4978548;28;20679;-91
2021/07/20 08:10:43;;;;;;;2.43;1.23;;;16.20;99.90;;;;;;4978020;28;20337;-91
2021/07/20 08:13:15;;;;;;;2.40;0.80;;;16.10;99.90;;;;;;4977411;28;20237;-92
2021/07/20 08:15:49;;;;;;;3.47;1.03;;;15.90;99.90;;;;;;4978626;28;20286;-91
2021/07/20 08:18:24;;;;;;;3.30;0.90;;;15.80;99.90;;;;;;4995259;28;20195;-92
2021/07/20 08:21:02;;;;;;;2.67;1.00;;;15.80;99.90;;;;;;4997355;28;20214;-92
2021/07/20 08:23:34;;;;;;;4.67;1.17;;;15.80;99.90;;;;;;4984581;28;20214;-91
2021/07/20 08:26:08;;;;;;;4.10;1.00;;;15.90;99.90;;;;;;4963586;28;20238;-91
2021/07/20 08:28:47;;;;;;;1.10;0.70;;;15.80;99.90;;;;;;4977297;28;20211;-92
2021/07/20 08:31:19;;;;;;;2.17;0.90;;;15.80;99.90;;;;;;4976449;28;20279;-92
2021/07/20 08:33:57;;;;;;;1.93;1.00;;;15.80;99.90;;;;;;4977884;28;20211;-92
2021/07/20 08:36:30;;;;;;;1.10;0.87;;;15.80;99.90;;;;;;4977514;28;20292;-91
2021/07/20 08:39:02;;;;;;;2.63;1.00;;;15.80;99.90;;;;;;4984720;28;20214;-92
2021/07/20 08:41:53;;;;;;;3.27;0.93;;;15.80;99.90;;;;;;4978614;28;20729;-92
2021/07/20 08:44:39;;;;;;;4.30;1.20;;;15.70;99.90;;;;;;4997149;28;20220;-92
2021/07/20 08:47:14;;;;;;;4.90;1.13;;;15.70;99.90;;;;;;4995481;28;20257;-92
2021/07/20 08:50:21;;;;;;;1.70;1.00;;;15.60;99.90;;;;;;4993690;28;20213;-91
2021/07/20 08:53:17;;;;;;;2.97;1.13;;;15.60;99.90;;;;;;4993412;28;20210;-92
2021/07/20 08:55:51;;;;;;;2.13;0.80;;;15.50;99.90;;;;;;4993271;28;20241;-92
2021/07/20 08:58:29;;;;;;;3.17;0.90;;;15.50;99.90;;;;;;4976808;28;20281;-91
2021/07/20 09:01:05;;;;;;;4.23;1.07;;;15.50;99.90;;;;;;4977226;28;20265;-91
2021/07/20 09:03:49;;;;;;;1.80;0.87;;;15.50;99.90;;;;;;4987794;28;20208;-92
2021/07/20 09:06:28;;;;;;;2.73;1.30;;;15.40;99.90;;;;;;4982261;28;20265;-92
2021/07/20 09:09:07;;;;;;;4.47;1.10;;;15.40;99.90;;;;;;4976076;28;20238;-91
2021/07/20 09:11:45;;;;;;;1.93;1.03;;;15.40;99.90;;;;;;4975417;28;20238;-92
2021/07/20 09:14:22;;;;;;;2.47;1.20;;;15.40;99.90;;;;;;4976585;28;20253;-92
2021/07/20 09:16:57;;;;;;;2.13;0.90;;;15.40;99.90;;;;;;4976242;28;20241;-92
2021/07/20 09:19:33;;;;;;;4.00;1.30;;;15.40;99.90;;;;;;4976133;28;20289;-91
2021/07/20 09:22:13;;;;;;;1.47;0.90;;;15.40;99.90;;;;;;4975605;28;20886;-92
2021/07/20 09:24:55;;;;;;;2.50;0.90;;;15.40;99.90;;;;;;4976781;28;20300;-93
2021/07/20 09:27:32;;;;;;;3.40;0.90;;;15.30;99.90;;;;;;4976786;28;20206;-93
2021/07/20 09:30:15;;;;;;;4.97;1.00;;;15.30;99.90;;;;;;4961403;28;20238;-93
2021/07/20 09:33:08;;;;;;;2.47;1.03;;;15.30;99.90;;;;;;4975520;28;20254;-92
2021/07/20 09:35:49;;;;;;;2.00;1.00;;;15.30;99.90;;;;;;4979806;28;20253;-93
2021/07/20 09:38:44;;;;;;;2.50;0.90;;;15.30;99.90;;;;;;4995447;28;20264;-92
2021/07/20 09:41:24;;;;;;;2.90;1.07;;;15.40;99.90;;;;;;4985672;28;20238;-92
2021/07/20 09:44:00;;;;;;;1.50;0.80;;;15.50;99.90;;;;;;4964613;28;20305;-92
2021/07/20 09:46:45;;;;;;;2.20;1.00;;;15.50;99.90;;;;;;4976020;28;20214;-92
2021/07/20 09:49:22;;;;;;;1.23;0.80;;;15.60;99.90;;;;;;4979058;28;20221;-92
2021/07/20 09:52:20;;;;;;;1.50;0.80;;;15.70;99.90;;;;;;4986507;28;20227;-92
2021/07/20 09:55:20;;;;;;;1.23;0.80;;;15.80;99.90;;;;;;4976167;28;20234;-92
2021/07/20 09:58:21;;;;;;;2.57;1.03;;;15.90;99.90;;;;;;4979390;28;20213;-91
2021/07/20 10:01:03;;;;;;;1.43;0.77;;;16.00;99.90;;;;;;4963315;28;20357;-92
2021/07/20 10:03:50;;;;;;;2.10;1.00;;;16.10;99.90;;;;;;4976241;28;20211;-92
2021/07/20 10:06:31;;;;;;;1.87;1.00;;;16.20;99.90;;;;;;4976156;28;20219;-91
2021/07/20 10:09:05;;;;;;;4.60;1.33;;;16.20;99.90;;;;;;4976286;28;20242;-91
2021/07/20 10:11:46;;;;;;;2.23;1.00;;;16.30;99.90;;;;;;4976703;28;20297;-92
2021/07/20 10:14:38;;;;;;;2.50;1.00;;;16.40;99.90;;;;;;4978461;28;20608;-91
2021/07/20 10:17:18;;;;;;;2.93;0.93;;;16.40;99.90;;;;;;4986371;28;20214;-91
2021/07/20 10:19:54;;;;;;;0.97;0.90;;;16.50;99.90;;;;;;4967959;29;20208;-91
2021/07/20 10:22:30;;;;;;;3.13;0.93;;;16.60;99.90;;;;;;4964832;29;20238;-92
2021/07/20 10:25:05;;;;;;;1.97;1.00;;;16.50;99.90;;;;;;4963258;28;20733;-91
2021/07/20 10:27:46;;;;;;;0.80;0.80;;;16.50;99.90;;;;;;4977001;28;20210;-92
2021/07/20 10:30:19;;;;;;;0.93;0.83;;;16.60;99.90;;;;;;4977077;28;20214;-92
2021/07/20 10:32:59;;;;;;;1.60;0.90;;;16.70;99.90;;;;;;4976601;28;20210;-92
2021/07/20 10:35:38;;;;;;;3.17;1.00;;;16.80;99.90;;;;;;4976292;28;20211;-93
2021/07/20 10:38:14;;;;;;;1.17;0.83;;;16.80;99.90;;;;;;4991725;28;20218;-93
2021/07/20 10:40:46;;;;;;;0.67;0.67;;;16.70;99.90;;;;;;4996814;28;20197;-92
2021/07/20 10:43:26;;;;;;;3.10;1.27;;;16.70;99.90;;;;;;4988254;28;20214;-92
2021/07/20 10:45:58;;;;;;;1.67;0.87;;;16.60;99.90;;;;;;4977492;28;20238;-92
2021/07/20 10:48:33;;;;;;;1.43;0.80;;;16.60;99.90;;;;;;4977866;28;20207;-91
2021/07/20 10:51:08;;;;;;;2.10;0.97;;;16.60;99.90;;;;;;4978146;28;20202;-92
2021/07/20 10:53:51;;;;;;;1.90;1.00;;;16.70;99.90;;;;;;4977399;28;20233;-92
2021/07/20 10:56:29;;;;;;;1.20;1.00;;;16.70;99.90;;;;;;4995120;28;20907;-92
2021/07/20 10:59:11;;;;;;;2.40;0.90;;;16.70;99.90;;;;;;4989302;28;20211;-92
2021/07/20 11:01:56;;;;;;;0.80;0.80;;;16.70;99.90;;;;;;4972371;28;20322;-92
2021/07/20 11:04:43;;;;;;;2.57;0.90;;;16.80;99.90;;;;;;4993941;28;20563;-91
2021/07/20 11:07:18;;;;;;;2.87;1.00;;;16.80;99.90;;;;;;4975574;28;20237;-91
2021/07/20 11:09:51;;;;;;;2.40;1.00;;;16.80;99.90;;;;;;4958066;28;20210;-92
2021/07/20 11:12:26;;;;;;;1.00;0.77;;;16.80;99.90;;;;;;4976898;28;20627;-91
2021/07/20 11:15:01;;;;;;;0.53;0.53;;;16.80;99.90;;;;;;4979029;28;20215;-92
2021/07/20 11:17:36;;;;;;;1.00;0.80;;;16.80;99.90;;;;;;4979109;28;20206;-91
2021/07/20 11:20:11;;;;;;;2.13;0.93;;;16.80;99.90;;;;;;4978797;28;20230;-92
2021/07/20 11:22:43;;;;;;;0.93;0.80;;;16.80;99.90;;;;;;4961080;28;20250;-91
2021/07/20 11:25:16;;;;;;;1.67;0.90;;;16.80;99.90;;;;;;4978797;28;20222;-91
2021/07/20 11:27:51;;;;;;;2.20;0.90;;;16.80;99.90;;;;;;4979072;28;20206;-92
2021/07/20 11:30:28;;;;;;;2.33;1.03;;;16.80;99.90;;;;;;4967387;28;20211;-91
2021/07/20 11:33:03;;;;;;;2.10;1.10;;;16.80;99.90;;;;;;4958753;29;20769;-92
2021/07/20 11:35:40;;;;;;;1.37;0.90;;;16.80;99.90;;;;;;4963717;28;20580;-92
2021/07/20 11:38:14;;;;;;;2.63;0.80;;;16.80;99.90;;;;;;4979137;28;20701;-92
2021/07/20 11:40:54;;;;;;;1.57;0.90;;;16.80;99.90;;;;;;4979874;28;20207;-92
2021/07/20 11:43:35;;;;;;;3.57;1.30;;;16.70;99.90;;;;;;4978514;28;20249;-92
2021/07/20 11:46:09;;;;;;;3.27;1.00;;;16.80;99.90;;;;;;4980142;28;20655;-92
2021/07/20 11:48:50;;;;;;;3.53;0.93;;;16.80;99.90;;;;;;4979369;28;20214;-92
2021/07/20 11:51:25;;;;;;;2.80;0.80;;;16.70;99.90;;;;;;4981080;28;20241;-93
2021/07/20 11:54:05;;;;;;;1.77;0.87;;;16.60;99.90;;;;;;5006417;28;20210;-92
2021/07/20 11:56:46;;;;;;;2.43;1.20;;;16.50;99.90;;;;;;5014893;28;20230;-91
2021/07/20 11:59:52;;;;;;;4.53;1.10;;;16.40;99.90;;;;;;5007512;28;20593;-91
2021/07/20 12:03:04;;;;;;;3.07;1.20;;;16.40;99.90;;;;;;4980164;28;20247;-92
2021/07/20 12:06:08;;;;;;;1.73;0.97;;;16.50;99.90;;;;;;4981014;28;20573;-92
2021/07/20 12:08:55;;;;;;;1.83;0.77;;;16.60;99.90;;;;;;4980846;28;20302;-92
2021/07/20 12:11:31;;;;;;;4.00;1.20;;;16.50;99.90;;;;;;4977896;28;20241;-92
2021/07/20 12:14:06;;;;;;;2.67;1.10;;;16.50;99.90;;;;;;4981532;28;20298;-90
2021/07/20 12:16:43;;;;;;;5.80;1.20;;;16.50;99.90;;;;;;4982838;28;20245;-93
2021/07/20 12:19:16;;;;;;;5.23;1.00;;;16.40;99.90;;;;;;4983295;28;20266;-92
2021/07/20 12:21:52;;;;;;;1.87;0.80;;;16.40;99.90;;;;;;4995617;28;20199;-92
2021/07/20 12:24:25;;;;;;;2.83;1.30;;;16.40;99.90;;;;;;4998718;28;20194;-90
2021/07/20 12:26:56;;;;;;;4.50;0.80;;;16.40;99.90;;;;;;4999126;28;20206;-91
2021/07/20 12:29:29;;;;;;;3.10;0.90;;;16.40;99.90;;;;;;4997705;28;20214;-92
2021/07/20 12:32:02;;;;;;;1.60;1.00;;;16.40;99.90;;;;;;4997431;28;20250;-93
2021/07/20 12:34:33;;;;;;;4.83;1.20;;;16.40;99.90;;;;;;4998095;28;20211;-92
2021/07/20 12:37:06;;;;;;;3.20;1.00;;;16.30;99.90;;;;;;4978548;28;20647;-92
2021/07/20 12:39:43;;;;;;;2.80;1.10;;;16.30;99.90;;;;;;4978431;28;20211;-92
2021/07/20 12:42:15;;;;;;;2.73;1.07;;;16.30;99.90;;;;;;4977708;28;20226;-92
2021/07/20 12:44:47;;;;;;;3.20;1.17;;;16.30;99.90;;;;;;4977795;28;20592;-92
2021/07/20 12:47:21;;;;;;;4.10;1.20;;;16.40;99.90;;;;;;4977576;28;20203;-93
2021/07/20 12:49:52;;;;;;;3.20;1.40;;;16.30;99.90;;;;;;4958828;29;20215;-92
2021/07/20 12:52:27;;;;;;;3.17;1.50;;;16.20;99.90;;;;;;4958385;29;20235;-92
2021/07/20 12:54:58;;;;;;;4.00;1.07;;;16.20;99.90;;;;;;4959433;29;20215;-93
2021/07/20 12:57:30;;;;;;;2.07;1.10;;;16.00;99.90;;;;;;4978384;29;20214;-93
2021/07/20 13:00:24;;;;;;;2.97;1.13;;;16.00;99.90;;;;;;4979333;28;20196;-93
2021/07/20 13:02:59;;;;;;;1.63;1.10;;;16.00;99.90;;;;;;4969463;28;20231;-92
2021/07/20 13:05:31;;;;;;;3.60;1.23;;;16.00;99.90;;;;;;4966773;28;20563;-93
2021/07/20 13:08:07;;;;;;;3.87;1.63;;;15.90;99.90;;;;;;4979115;28;20221;-92
2021/07/20 13:10:38;;;;;;;2.83;1.50;;;15.90;99.90;;;;;;4978807;28;20210;-92
2021/07/20 13:13:11;;;;;;;4.90;1.60;;;15.90;99.90;;;;;;4976621;28;20207;-92
2021/07/20 13:15:48;;;;;;;3.10;1.47;;;16.00;99.90;;;;;;4977796;28;20215;-92
2021/07/20 13:18:27;;;;;;;4.13;1.43;;;15.90;99.90;;;;;;4977154;28;20214;-93
2021/07/20 13:21:20;;;;;;;2.80;1.40;;;16.00;99.90;;;;;;4977609;28;20242;-96
2021/07/20 13:23:54;;;;;;;3.47;1.40;;;16.10;99.90;;;;;;4976758;28;20265;-92
2021/07/20 13:26:26;;;;;;;2.80;1.30;;;15.90;99.90;;;;;;4977906;28;20211;-92
2021/07/20 13:28:58;;;;;;;2.40;1.33;;;15.80;99.90;;;;;;4977551;28;20293;-92
2021/07/20 13:31:34;;;;;;;5.83;1.30;;;15.90;99.90;;;;;;4956933;29;20310;-92
2021/07/20 13:34:07;;;;;;;2.73;1.30;;;16.00;99.90;;;;;;4958345;28;20215;-93
2021/07/20 13:36:43;;;;;;;3.23;1.50;;;16.00;99.90;;;;;;4982696;28;20210;-93
2021/07/20 13:39:18;;;;;;;2.80;1.37;;;16.00;99.90;;;;;;4996199;28;20292;-93